createdAt,value
2022-10-23T00:01:17.538Z,96550.47
2022-10-23T00:03:46.147Z,96544.94
2022-10-23T00:06:15.179Z,96534.03
2022-10-23T00:08:43.544Z,96534.28
2022-10-23T00:11:14.688Z,96539.00
2022-10-23T00:13:42.957Z,96547.81
2022-10-23T00:16:11.253Z,96538.47
2022-10-23T00:18:41.199Z,96544.69
2022-10-23T00:21:11.674Z,96540.66
2022-10-23T00:23:40.506Z,96541.31
2022-10-23T00:26:11.119Z,96537.38
2022-10-23T00:28:39.230Z,96548.50
2022-10-23T00:31:07.476Z,96551.50
2022-10-23T00:33:36.037Z,96560.13
2022-10-23T00:36:07.556Z,96551.75
2022-10-23T00:38:36.466Z,96549.59
2022-10-23T00:41:05.597Z,96550.69
2022-10-23T00:43:34.779Z,96550.50
2022-10-23T00:46:03.114Z,96552.59
2022-10-23T00:48:31.396Z,96552.63
2022-10-23T00:50:59.636Z,96557.25
2022-10-23T00:53:29.401Z,96559.19
2022-10-23T00:56:00.123Z,96555.22
2022-10-23T00:58:28.089Z,96554.19
2022-10-23T01:00:57.505Z,96549.63
2022-10-23T01:03:28.909Z,96553.25
2022-10-23T01:06:01.836Z,96552.91
2022-10-23T01:08:34.921Z,96556.34
2022-10-23T01:11:08.022Z,96547.44
2022-10-23T01:13:40.906Z,96544.28
2022-10-23T01:16:13.197Z,96540.38
2022-10-23T01:18:45.189Z,96538.75
2022-10-23T01:21:19.718Z,96539.47
2022-10-23T01:24:09.978Z,96533.94
2022-10-23T01:27:05.961Z,96528.66
2022-10-23T01:29:38.768Z,96521.97
2022-10-23T01:32:10.499Z,96520.50
2022-10-23T01:34:46.336Z,96527.50
2022-10-23T01:37:17.367Z,96510.69
2022-10-23T01:39:48.590Z,96511.63
2022-10-23T01:42:20.301Z,96518.56
2022-10-23T01:44:52.989Z,96521.59
2022-10-23T01:47:25.205Z,96520.69
2022-10-23T01:49:54.668Z,96523.97
2022-10-23T01:52:23.179Z,96522.75
2022-10-23T01:57:46.921Z,96523.78
2022-10-23T02:00:18.832Z,96514.22
2022-10-23T02:02:48.950Z,96515.44
2022-10-23T02:05:20.038Z,96525.81
2022-10-23T02:07:48.857Z,96522.66
2022-10-23T02:10:17.167Z,96522.31
2022-10-23T02:12:50.676Z,96514.41
2022-10-23T02:15:25.777Z,96518.66
2022-10-23T02:18:02.886Z,96515.34
2022-10-23T02:20:38.534Z,96508.91
2022-10-23T02:23:15.742Z,96490.91
2022-10-23T02:25:48.761Z,96485.78
2022-10-23T02:28:19.564Z,96485.59
2022-10-23T02:30:51.434Z,96480.38
2022-10-23T02:33:20.156Z,96478.09
2022-10-23T02:35:49.510Z,96478.84
2022-10-23T02:38:33.509Z,96477.31
2022-10-23T02:41:12.422Z,96479.41
2022-10-23T02:43:46.445Z,96477.91
2022-10-23T02:46:22.551Z,96475.78
2022-10-23T02:48:56.294Z,96465.22
2022-10-23T02:51:32.420Z,96456.66
2022-10-23T02:54:05.811Z,96456.66
2022-10-23T02:56:38.967Z,96464.88
2022-10-23T02:59:12.196Z,96466.75
2022-10-23T03:01:46.923Z,96468.59
2022-10-23T03:04:16.244Z,96468.13
2022-10-23T03:06:44.523Z,96460.69
2022-10-23T03:09:12.766Z,96463.34
2022-10-23T03:11:41.020Z,96462.16
2022-10-23T03:14:09.296Z,96465.13
2022-10-23T03:16:37.492Z,96464.81
2022-10-23T03:19:07.053Z,96462.16
2022-10-23T03:21:35.332Z,96459.28
2022-10-23T03:24:03.562Z,96462.91
2022-10-23T03:26:32.082Z,96461.13
2022-10-23T03:29:00.329Z,96464.41
2022-10-23T03:31:28.606Z,96460.38
2022-10-23T03:33:56.843Z,96459.00
2022-10-23T03:36:26.575Z,96451.75
2022-10-23T03:38:54.926Z,96459.34
2022-10-23T03:41:23.138Z,96450.91
2022-10-23T03:43:51.375Z,96450.88
2022-10-23T03:46:19.602Z,96446.91
2022-10-23T03:48:47.846Z,96445.94
2022-10-23T03:51:16.033Z,96447.69
2022-10-23T03:53:45.662Z,96452.53
2022-10-23T03:56:14.104Z,96443.06
2022-10-23T03:58:42.318Z,96448.88
2022-10-23T04:01:10.837Z,96451.88
2022-10-23T04:03:39.102Z,96459.19
2022-10-23T04:06:07.908Z,96457.16
2022-10-23T04:08:36.190Z,96463.00
2022-10-23T04:11:05.938Z,96452.88
2022-10-23T04:13:34.113Z,96450.06
2022-10-23T04:16:02.484Z,96452.53
2022-10-23T04:18:30.768Z,96447.03
2022-10-23T04:20:58.983Z,96445.09
2022-10-23T04:23:27.244Z,96442.59
2022-10-23T04:25:57.515Z,96440.28
2022-10-23T04:28:27.938Z,96444.25
2022-10-23T04:30:56.165Z,96449.25
2022-10-23T04:33:24.441Z,96449.69
2022-10-23T04:35:52.750Z,96445.72
2022-10-23T04:38:21.059Z,96447.22
2022-10-23T04:40:49.346Z,96440.78
2022-10-23T04:43:17.568Z,96448.75
2022-10-23T04:45:47.237Z,96444.72
2022-10-23T04:48:15.432Z,96450.22
2022-10-23T04:50:43.702Z,96446.59
2022-10-23T04:53:11.967Z,96445.06
2022-10-23T04:55:40.230Z,96449.38
2022-10-23T04:58:08.425Z,96445.41
2022-10-23T05:00:36.790Z,96444.59
2022-10-23T05:03:06.418Z,96437.13
2022-10-23T05:05:34.681Z,96435.81
2022-10-23T05:08:02.998Z,96442.94
2022-10-23T05:10:31.386Z,96439.97
2022-10-23T05:12:59.676Z,96433.28
2022-10-23T05:15:27.969Z,96435.63
2022-10-23T05:17:58.371Z,96431.16
2022-10-23T05:20:30.084Z,96421.53
2022-10-23T05:22:59.200Z,96415.06
2022-10-23T05:25:27.469Z,96408.44
2022-10-23T05:27:55.709Z,96406.81
2022-10-23T05:30:23.989Z,96409.38
2022-10-23T05:32:52.258Z,96404.50
2022-10-23T05:35:23.713Z,96402.34
2022-10-23T05:37:54.694Z,96405.16
2022-10-23T05:40:23.945Z,96407.63
2022-10-23T05:42:52.189Z,96405.50
2022-10-23T05:45:20.399Z,96412.78
2022-10-23T05:47:49.189Z,96420.53
2022-10-23T05:50:17.700Z,96412.34
2022-10-23T05:52:48.415Z,96405.59
2022-10-23T05:55:18.297Z,96406.16
2022-10-23T05:57:46.589Z,96406.66
2022-10-23T06:00:15.054Z,96417.75
2022-10-23T06:02:43.334Z,96424.31
2022-10-23T06:05:11.567Z,96426.34
2022-10-23T06:07:39.799Z,96423.56
2022-10-23T06:10:08.525Z,96428.53
2022-10-23T06:12:38.235Z,96417.84
2022-10-23T06:15:07.761Z,96420.31
2022-10-23T06:17:36.132Z,96426.69
2022-10-23T06:20:04.858Z,96420.16
2022-10-23T06:22:33.092Z,96422.38
2022-10-23T06:25:01.279Z,96419.22
2022-10-23T06:27:29.521Z,96431.78
2022-10-23T06:29:59.156Z,96428.53
2022-10-23T06:32:27.422Z,96431.00
2022-10-23T06:34:55.655Z,96433.50
2022-10-23T06:37:23.855Z,96422.75
2022-10-23T06:39:52.119Z,96423.22
2022-10-23T06:42:20.373Z,96437.09
2022-10-23T06:44:48.625Z,96430.00
2022-10-23T06:47:18.575Z,96433.53
2022-10-23T06:49:46.904Z,96433.78
2022-10-23T06:52:41.837Z,96435.91
2022-10-23T06:55:03.250Z,96430.44
2022-10-23T06:57:31.440Z,96422.31
2022-10-23T06:59:59.673Z,96431.19
2022-10-23T07:02:29.282Z,96427.13
2022-10-23T07:04:57.514Z,96426.47
2022-10-23T07:07:25.805Z,96430.44
2022-10-23T07:09:54.032Z,96418.47
2022-10-23T07:12:22.336Z,96419.34
2022-10-23T07:14:50.543Z,96419.41
2022-10-23T07:17:18.785Z,96417.50
2022-10-23T07:19:48.816Z,96419.44
2022-10-23T07:22:16.998Z,96418.66
2022-10-23T07:24:45.197Z,96416.53
2022-10-23T07:27:13.470Z,96411.06
2022-10-23T07:29:42.089Z,96415.31
2022-10-23T07:32:10.392Z,96423.38
2022-10-23T07:34:38.897Z,96422.72
2022-10-23T07:37:08.543Z,96424.28
2022-10-23T07:39:36.742Z,96424.94
2022-10-23T07:42:05.215Z,96410.72
2022-10-23T07:44:33.400Z,96405.69
2022-10-23T07:47:01.806Z,96404.69
2022-10-23T07:49:30.297Z,96411.78
2022-10-23T07:51:58.890Z,96406.09
2022-10-23T07:54:28.727Z,96417.28
2022-10-23T07:56:56.942Z,96402.00
2022-10-23T07:59:25.181Z,96404.97
2022-10-23T08:01:56.266Z,96412.03
2022-10-23T08:04:24.960Z,96411.00
2022-10-23T08:06:53.221Z,96404.47
2022-10-23T08:09:21.417Z,96403.56
2022-10-23T08:11:51.004Z,96398.47
2022-10-23T08:14:19.209Z,96404.41
2022-10-23T08:16:47.405Z,96408.28
2022-10-23T08:19:15.653Z,96397.38
2022-10-23T08:21:43.817Z,96404.13
2022-10-23T08:24:13.803Z,96409.28
2022-10-23T08:26:42.396Z,96406.25
2022-10-23T08:29:11.998Z,96395.66
2022-10-23T08:31:40.228Z,96392.72
2022-10-23T08:34:08.519Z,96396.47
2022-10-23T08:36:39.184Z,96392.97
2022-10-23T08:39:07.788Z,96390.44
2022-10-23T08:41:38.601Z,96390.38
2022-10-23T08:44:14.047Z,96389.59
2022-10-23T08:46:44.553Z,96386.00
2022-10-23T08:49:19.154Z,96385.09
2022-10-23T08:51:49.540Z,96396.31
2022-10-23T08:54:20.681Z,96395.72
2022-10-23T08:56:51.930Z,96386.94
2022-10-23T08:59:27.913Z,96390.28
2022-10-23T09:02:01.059Z,96383.47
2022-10-23T09:04:29.798Z,96379.75
2022-10-23T09:07:01.471Z,96371.66
2022-10-23T09:09:42.607Z,96358.81
2022-10-23T09:12:15.169Z,96362.00
2022-10-23T09:15:06.572Z,96367.09
2022-10-23T09:17:37.942Z,96358.31
2022-10-23T09:20:15.752Z,96351.16
2022-10-23T09:22:44.383Z,96348.59
2022-10-23T09:25:16.704Z,96336.31
2022-10-23T09:27:50.670Z,96338.44
2022-10-23T09:30:33.732Z,96342.94
2022-10-23T09:33:02.166Z,96340.88
2022-10-23T09:35:31.300Z,96338.63
2022-10-23T09:37:59.713Z,96342.69
2022-10-23T09:40:33.414Z,96339.69
2022-10-23T09:43:04.723Z,96331.75
2022-10-23T09:45:36.078Z,96330.22
2022-10-23T09:48:10.660Z,96338.50
2022-10-23T09:50:43.253Z,96335.94
2022-10-23T09:53:17.230Z,96331.84
2022-10-23T09:55:52.826Z,96323.53
2022-10-23T09:58:22.877Z,96332.59
2022-10-23T10:00:54.751Z,96340.38
2022-10-23T10:03:25.028Z,96328.84
2022-10-23T10:06:01.078Z,96331.75
2022-10-23T10:08:36.752Z,96325.50
2022-10-23T10:11:10.944Z,96315.56
2022-10-23T10:13:53.347Z,96316.44
2022-10-23T10:16:29.214Z,96323.47
2022-10-23T10:19:04.876Z,96311.16
2022-10-23T10:21:37.973Z,96309.50
2022-10-23T10:24:09.443Z,96302.63
2022-10-23T10:26:42.647Z,96302.56
2022-10-23T10:29:17.517Z,96312.78
2022-10-23T10:31:57.994Z,96306.56
2022-10-23T10:34:28.643Z,96309.28
2022-10-23T10:36:57.009Z,96304.03
2022-10-23T10:39:40.637Z,96294.94
2022-10-23T10:42:43.653Z,96305.41
2022-10-23T10:45:20.084Z,96310.19
2022-10-23T10:48:01.045Z,96294.63
2022-10-23T10:50:32.491Z,96293.69
2022-10-23T10:53:07.009Z,96281.97
2022-10-23T10:55:39.089Z,96287.69
2022-10-23T10:58:13.927Z,96288.50
2022-10-23T11:00:42.277Z,96278.63
2022-10-23T11:03:20.402Z,96267.41
2022-10-23T11:05:50.603Z,96244.69
2022-10-23T11:08:22.250Z,96246.47
2022-10-23T11:10:54.012Z,96247.41
2022-10-23T11:13:27.604Z,96243.25
2022-10-23T11:15:59.658Z,96237.53
2022-10-23T11:18:31.033Z,96234.16
2022-10-23T11:21:08.340Z,96228.78
2022-10-23T11:24:06.452Z,96235.47
2022-10-23T11:26:43.274Z,96217.56
2022-10-23T11:29:44.873Z,96217.94
2022-10-23T11:32:29.160Z,96212.13
2022-10-23T11:35:06.870Z,96214.97
2022-10-23T11:37:35.168Z,96209.22
2022-10-23T11:40:13.762Z,96208.97
2022-10-23T11:42:48.717Z,96209.22
2022-10-23T11:45:36.046Z,96211.38
2022-10-23T11:48:05.841Z,96206.72
2022-10-23T11:50:51.066Z,96198.03
2022-10-23T11:53:28.455Z,96198.47
2022-10-23T11:56:01.828Z,96203.66
2022-10-23T11:58:42.685Z,96203.50
2022-10-23T12:01:24.283Z,96194.25
2022-10-23T12:03:55.607Z,96185.53
2022-10-23T12:06:27.725Z,96188.66
2022-10-23T12:09:00.291Z,96176.09
2022-10-23T12:11:41.067Z,96173.31
2022-10-23T12:14:31.539Z,96184.16
2022-10-23T12:16:59.601Z,96176.06
2022-10-23T12:19:30.006Z,96184.44
2022-10-23T12:22:02.381Z,96170.66
2022-10-23T12:24:56.789Z,96174.38
2022-10-23T12:27:32.551Z,96166.25
2022-10-23T12:30:22.166Z,96169.91
2022-10-23T12:33:03.117Z,96171.44
2022-10-23T12:35:52.381Z,96159.66
2022-10-23T12:38:23.271Z,96167.78
2022-10-23T12:40:53.281Z,96168.50
2022-10-23T12:43:26.224Z,96159.56
2022-10-23T12:45:55.643Z,96153.56
2022-10-23T12:48:25.478Z,96151.13
2022-10-23T12:50:55.954Z,96140.53
2022-10-23T12:53:25.688Z,96132.84
2022-10-23T12:58:30.121Z,96133.69
2022-10-23T13:00:59.771Z,96131.00
2022-10-23T13:03:30.065Z,96130.38
2022-10-23T13:06:02.651Z,96127.88
2022-10-23T13:08:35.472Z,96131.97
2022-10-23T13:11:04.497Z,96133.69
2022-10-23T13:13:32.789Z,96135.16
2022-10-23T13:16:01.082Z,96132.88
2022-10-23T13:18:29.381Z,96127.38
2022-10-23T13:20:59.460Z,96128.72
2022-10-23T13:23:32.130Z,96125.78
2022-10-23T13:26:03.087Z,96126.94
2022-10-23T13:28:33.488Z,96116.78
2022-10-23T13:31:03.143Z,96116.53
2022-10-23T13:33:37.166Z,96111.50
2022-10-23T13:36:08.286Z,96105.31
2022-10-23T13:38:37.866Z,96107.88
2022-10-23T13:41:13.294Z,96102.34
2022-10-23T13:43:41.906Z,96100.28
2022-10-23T13:46:14.672Z,96104.63
2022-10-23T13:48:43.250Z,96114.59
2022-10-23T13:51:13.721Z,96104.69
2022-10-23T13:53:42.289Z,96104.97
2022-10-23T13:56:13.271Z,96108.19
2022-10-23T13:58:41.988Z,96093.09
2022-10-23T14:01:19.138Z,96097.44
2022-10-23T14:03:48.086Z,96105.19
2022-10-23T14:06:16.352Z,96108.19
2022-10-23T14:08:44.590Z,96098.47
2022-10-23T14:13:48.924Z,96094.44
2022-10-23T14:16:18.937Z,96096.75
2022-10-23T14:18:47.178Z,96100.28
2022-10-23T14:21:16.884Z,96102.97
2022-10-23T14:23:45.173Z,96107.44
2022-10-23T14:26:16.675Z,96100.38
2022-10-23T14:28:45.692Z,96108.47
2022-10-23T14:31:15.375Z,96106.06
2022-10-23T14:33:44.358Z,96100.31
2022-10-23T14:36:13.432Z,96099.16
2022-10-23T14:38:41.672Z,96098.09
2022-10-23T14:41:15.073Z,96095.56
2022-10-23T14:43:43.654Z,96089.56
2022-10-23T14:46:13.045Z,96077.88
2022-10-23T14:48:45.418Z,96078.88
2022-10-23T14:51:20.482Z,96080.00
2022-10-23T14:53:49.758Z,96080.53
2022-10-23T14:56:19.321Z,96081.69
2022-10-23T14:58:47.575Z,96080.22
2022-10-23T15:01:15.939Z,96079.31
2022-10-23T15:03:44.396Z,96077.41
2022-10-23T15:06:16.075Z,96072.78
2022-10-23T15:08:47.059Z,96064.50
2022-10-23T15:11:15.373Z,96068.53
2022-10-23T15:13:45.019Z,96072.88
2022-10-23T15:16:13.592Z,96071.28
2022-10-23T15:18:42.638Z,96074.34
2022-10-23T15:21:11.966Z,96069.16
2022-10-23T15:23:41.939Z,96071.53
2022-10-23T15:26:13.427Z,96069.84
2022-10-23T15:28:41.616Z,96065.97
2022-10-23T15:34:02.001Z,96060.00
2022-10-23T15:36:30.573Z,96055.56
2022-10-23T15:38:58.825Z,96056.28
2022-10-23T15:41:29.840Z,96054.81
2022-10-23T15:43:59.095Z,96058.13
2022-10-23T15:46:27.575Z,96048.06
2022-10-23T15:48:56.028Z,96049.69
2022-10-23T15:51:25.702Z,96052.75
2022-10-23T15:53:53.936Z,96049.47
2022-10-23T15:56:22.302Z,96058.78
2022-10-23T15:58:51.120Z,96047.94
2022-10-23T16:01:19.996Z,96041.88
2022-10-23T16:03:48.669Z,96038.41
2022-10-23T16:06:18.935Z,96033.50
2022-10-23T16:08:48.956Z,96045.13
2022-10-23T16:11:19.392Z,96037.06
2022-10-23T16:13:48.225Z,96035.28
2022-10-23T16:16:17.488Z,96047.75
2022-10-23T16:18:46.483Z,96039.19
2022-10-23T16:21:19.718Z,96034.06
2022-10-23T16:23:49.840Z,96026.34
2022-10-23T16:26:18.913Z,96026.75
2022-10-23T16:28:48.270Z,96034.63
2022-10-23T16:31:20.645Z,96031.47
2022-10-23T16:33:49.626Z,96038.25
2022-10-23T16:36:18.438Z,96026.63
2022-10-23T16:38:46.687Z,96027.56
2022-10-23T16:41:16.796Z,96023.69
2022-10-23T16:43:45.339Z,96036.25
2022-10-23T16:46:15.614Z,96038.25
2022-10-23T16:51:57.487Z,96033.44
2022-10-23T16:54:26.525Z,96031.13
2022-10-23T16:56:56.224Z,96029.97
2022-10-23T16:59:25.090Z,96036.44
2022-10-23T17:01:54.082Z,96040.06
2022-10-23T17:04:22.466Z,96043.03
2022-10-23T17:06:50.823Z,96052.47
2022-10-23T17:09:19.476Z,96052.34
2022-10-23T17:11:48.021Z,96052.94
2022-10-23T17:14:20.882Z,96043.75
2022-10-23T17:16:50.951Z,96034.84
2022-10-23T17:22:19.596Z,96051.53
2022-10-23T17:24:50.303Z,96058.34
2022-10-23T17:27:24.314Z,96059.25
2022-10-23T17:29:54.056Z,96059.44
2022-10-23T17:32:22.482Z,96068.41
2022-10-23T17:34:50.815Z,96064.44
2022-10-23T17:37:19.123Z,96060.25
2022-10-23T17:39:47.430Z,96072.94
2022-10-23T17:42:15.982Z,96072.88
2022-10-23T17:44:44.222Z,96066.06
2022-10-23T17:47:13.964Z,96075.34
2022-10-23T17:49:45.385Z,96071.19
2022-10-23T17:52:15.154Z,96081.47
2022-10-23T17:54:43.418Z,96079.03
2022-10-23T17:57:11.826Z,96088.72
2022-10-23T17:59:40.101Z,96077.66
2022-10-23T18:02:08.644Z,96078.25
2022-10-23T18:04:38.493Z,96082.28
2022-10-23T18:07:06.742Z,96091.88
2022-10-23T18:09:35.455Z,96074.03
2022-10-23T18:12:03.676Z,96061.69
2022-10-23T18:14:34.322Z,96062.16
2022-10-23T18:17:05.122Z,96079.00
2022-10-23T18:19:33.376Z,96090.44
2022-10-23T18:22:03.061Z,96063.53
2022-10-23T18:24:32.014Z,96060.59
2022-10-23T18:27:00.382Z,96059.94
2022-10-23T18:29:28.637Z,96065.91
2022-10-23T18:31:56.830Z,96079.56
2022-10-23T18:34:25.730Z,96081.25
2022-10-23T18:36:55.774Z,96078.66
2022-10-23T18:39:26.559Z,96122.47
2022-10-23T18:41:57.282Z,96082.09
2022-10-23T18:44:28.802Z,96071.00
2022-10-23T18:46:57.850Z,96077.75
2022-10-23T18:49:26.125Z,96070.94
2022-10-23T18:51:54.403Z,96070.63
2022-10-23T18:54:23.159Z,96073.53
2022-10-23T18:56:52.808Z,96067.78
2022-10-23T18:59:21.861Z,96066.66
2022-10-23T19:01:50.988Z,96069.41
2022-10-23T19:04:19.821Z,96068.81
2022-10-23T19:06:49.463Z,96057.75
2022-10-23T19:09:18.086Z,96055.09
2022-10-23T19:11:46.982Z,96056.44
2022-10-23T19:14:16.612Z,96077.25
2022-10-23T19:16:48.592Z,96072.09
2022-10-23T19:19:19.874Z,96079.47
2022-10-23T19:21:48.876Z,96072.69
2022-10-23T19:24:20.697Z,96076.94
2022-10-23T19:26:49.457Z,96081.13
2022-10-23T19:29:20.893Z,96075.44
2022-10-23T19:31:49.973Z,96081.25
2022-10-23T19:34:19.930Z,96076.19
2022-10-23T19:36:48.500Z,96069.75
2022-10-23T19:39:16.903Z,96080.47
2022-10-23T19:41:45.468Z,96082.72
2022-10-23T19:44:14.368Z,96088.81
2022-10-23T19:46:43.980Z,96080.50
2022-10-23T19:49:12.594Z,96084.13
2022-10-23T19:51:41.125Z,96078.06
2022-10-23T19:54:10.635Z,96083.03
2022-10-23T19:56:38.876Z,96086.91
2022-10-23T19:59:07.284Z,96070.88
2022-10-23T20:01:35.991Z,96078.91
2022-10-23T20:04:05.906Z,96083.13
2022-10-23T20:06:35.879Z,96079.59
2022-10-23T20:09:04.852Z,96081.81
2022-10-23T20:11:33.139Z,96085.59
2022-10-23T20:14:01.321Z,96078.31
2022-10-23T20:16:31.166Z,96077.59
2022-10-23T20:18:59.650Z,96076.78
2022-10-23T20:21:29.196Z,96076.22
2022-10-23T20:23:58.177Z,96071.03
2022-10-23T20:26:26.475Z,96074.47
2022-10-23T20:28:56.280Z,96070.31
2022-10-23T20:31:26.341Z,96079.28
2022-10-23T20:33:55.273Z,96075.38
2022-10-23T20:36:26.394Z,96082.19
2022-10-23T20:38:56.547Z,96071.19
2022-10-23T20:41:27.133Z,96073.00
2022-10-23T20:43:56.215Z,96091.72
2022-10-23T20:46:24.443Z,96091.09
2022-10-23T20:48:52.760Z,96111.56
2022-10-23T20:51:22.665Z,96128.78
2022-10-23T20:53:51.379Z,96163.53
2022-10-23T20:56:23.695Z,96177.97
2022-10-23T20:58:52.126Z,96200.59
2022-10-23T21:01:20.427Z,96225.19
2022-10-23T21:03:50.984Z,96235.66
2022-10-23T21:06:19.580Z,96221.22
2022-10-23T21:08:47.822Z,96227.88
2022-10-23T21:11:17.444Z,96241.63
2022-10-23T21:13:47.533Z,96256.25
2022-10-23T21:16:17.711Z,96249.97
2022-10-23T21:18:46.878Z,96241.78
2022-10-23T21:21:19.203Z,96231.28
2022-10-23T21:23:47.989Z,96221.25
2022-10-23T21:26:17.522Z,96226.38
2022-10-23T21:28:55.856Z,96223.97
2022-10-23T21:31:35.136Z,96230.72
2022-10-23T21:34:03.538Z,96234.03
2022-10-23T21:36:34.327Z,96237.06
2022-10-23T21:39:08.114Z,96234.00
2022-10-23T21:41:36.472Z,96244.84
2022-10-23T21:44:06.939Z,96247.53
2022-10-23T21:46:36.122Z,96240.97
2022-10-23T21:49:04.820Z,96256.47
2022-10-23T21:51:35.340Z,96260.66
2022-10-23T21:54:03.438Z,96263.00
2022-10-23T21:56:33.575Z,96275.00
2022-10-23T21:59:03.119Z,96284.88
2022-10-23T22:01:33.072Z,96286.31
2022-10-23T22:04:01.430Z,96272.31
2022-10-23T22:06:30.529Z,96276.84
2022-10-23T22:09:00.067Z,96268.72
2022-10-23T22:11:28.945Z,96281.00
2022-10-23T22:13:57.485Z,96287.47
2022-10-23T22:16:25.943Z,96295.66
2022-10-23T22:18:55.644Z,96296.63
2022-10-23T22:21:25.558Z,96313.75
2022-10-23T22:26:43.642Z,96311.22
2022-10-23T22:29:13.833Z,96313.66
2022-10-23T22:31:45.551Z,96298.75
2022-10-23T22:34:28.826Z,96306.84
2022-10-23T22:37:12.779Z,96317.66
2022-10-23T22:39:41.477Z,96324.25
2022-10-23T22:42:09.981Z,96329.94
2022-10-23T22:44:38.507Z,96331.72
2022-10-23T22:47:07.253Z,96335.28
2022-10-23T22:49:37.660Z,96334.16
2022-10-23T22:52:05.972Z,96336.38
2022-10-23T22:54:34.603Z,96334.09
2022-10-23T22:57:02.999Z,96344.06
2022-10-23T22:59:31.240Z,96341.50
2022-10-23T23:01:59.671Z,96352.94
2022-10-23T23:04:43.331Z,96350.94
2022-10-23T23:07:13.743Z,96350.06
2022-10-23T23:09:43.206Z,96350.38
2022-10-23T23:12:12.908Z,96354.84
2022-10-23T23:14:42.011Z,96362.03
2022-10-23T23:17:10.757Z,96359.72
2022-10-23T23:19:39.070Z,96367.78
2022-10-23T23:22:07.426Z,96362.78
2022-10-23T23:24:37.105Z,96368.13
2022-10-23T23:27:05.428Z,96367.69
2022-10-23T23:29:33.761Z,96370.69
2022-10-23T23:32:02.026Z,96364.81
2022-10-23T23:34:30.429Z,96375.09
2022-10-23T23:36:58.796Z,96381.78
2022-10-23T23:39:28.358Z,96368.16
2022-10-23T23:41:58.026Z,96364.31
2022-10-23T23:44:26.322Z,96358.84
2022-10-23T23:46:54.604Z,96368.22
2022-10-23T23:49:23.010Z,96373.91
2022-10-23T23:51:51.493Z,96381.28
2022-10-23T23:54:19.779Z,96376.78
2022-10-23T23:56:47.972Z,96366.50
2022-10-23T23:59:17.570Z,96367.56
